Hauptseite
METAR-TAF:

METAR-TAF

Flughäfen :

Flughafen Dzaoudzi Pamandzi

Dzaoudzi, Mayotte

Breite: 12-48S, Länge: 045-17E, Höhe: 8 m

Beobachtung

Neuester Wetterbericht von vor 35 Minuten, um 06:30 UTC
Wind 11 kt aus Süd/Südost
Temperatur 28°C
Luftfeuchtigkeit 66%
Luftdruck 1019 hPa
Sichtweite 10 km oder mehr
Aufgelockert bewölkt in der Höhe von 2600 ft

METAR: FMCZ 130630Z AUTO 16011KT 9999 SCT026 28/21 Q1019 NOSIG

Zeit: 10:05 (07:05 UTC)

Prognose

Neuester Wetterbericht von vor 2 Stunden und 5 Minuten, um 05:00 UTC
Gültige Prognose vom 13 um 06 UTC bis 14 um 06 UTC
Wind 16 kt aus Ost/Südost
Sichtweite 10 km oder mehr
Durchbrochene Bewölkung in der Höhe von 2900 ft
Übergehend zu
vom 13 um 15 UTC bis 13 um 17 UTC
Wind 8 kt aus Süd
Übergehend zu
vom 13 um 20 UTC bis 13 um 22 UTC
Wind 20 kt aus Süd/Südost

TAF: FMCZ 130500Z 1306/1406 12016KT 9999 BKN029 BECMG 1315/1317 18008KT BECMG 1320/1322 15020KT

Wetterbeobachtungen und Prognosen von mehr als 4000 Flughäfen (METAR und TAF Bericht).

Die verfügbaren Stationen werden durch gelbe und rote Markierungen auf der Karte dargestellt.

Führen Sie die Maus auf sie, um den Namen der Station zu sehen.

Darauf klicken, um die Beobachtung von Wetterbeobachtungen und Prognosen zu sehen.

Um die Karte zu ändern : klicken Sie auf den grünen Tasten mit einem schwarzen Kreuz Zum Vergrößern, auf den grünen Button mit einem Gedankenstrich zu verkleinern, oder auf die grünen Pfeile für benachbarte Karten.


METAR-TAF: